Time;durP1;ratioP1;P1;durP2;ratioP2;P2;SDS_P1;SDS_P2;PMS_P1;PMS_P2;Temp;Humidity;BMP_temperature;BMP_pressure;BME280_temperature;BME280_humidity;BME280_pressure;Samples;Min_cycle;Max_cycle;Signal;HPM_P1;HPM_P2
2023/06/18 00:01:23;;;;;;;17.42;12.90;;;;;;;;;;5076524;28;20024;-35
2023/06/18 00:03:53;;;;;;;17.23;12.55;;;;;;;;;;5084316;28;20024;-36
2023/06/18 00:06:21;;;;;;;17.25;13.25;;;;;;;;;;5088014;28;20032;-35
2023/06/18 00:08:49;;;;;;;19.80;14.60;;;;;;;;;;5079130;28;20158;-35
2023/06/18 00:11:15;;;;;;;18.35;14.27;;;;;;;;;;5088632;28;20070;-35
2023/06/18 00:13:40;;;;;;;20.40;14.85;;;;;;;;;;5086530;28;20507;-35
2023/06/18 00:16:11;;;;;;;18.75;13.90;;;;;;;;;;5081311;28;20039;-36
2023/06/18 00:18:37;;;;;;;18.77;12.88;;;;;;;;;;5098274;28;20039;-37
2023/06/18 00:21:07;;;;;;;20.92;14.23;;;;;;;;;;5082608;28;20024;-35
2023/06/18 00:23:32;;;;;;;25.77;14.18;;;;;;;;;;5076984;28;20039;-35
2023/06/18 00:26:03;;;;;;;12.68;8.77;;;;;;;;;;5080126;28;20016;-35
2023/06/18 00:28:33;;;;;;;19.15;13.57;;;;;;;;;;5085341;28;20028;-35
2023/06/18 00:31:05;;;;;;;18.63;14.70;;;;;;;;;;5079453;28;20475;-35
2023/06/18 00:33:32;;;;;;;;;;;;;;;;;;5065749;28;20154;-35
2023/06/18 00:36:04;;;;;;;19.65;14.07;;;;;;;;;;5085922;28;19904;-35
2023/06/18 00:38:33;;;;;;;;;;;;;;;;;;5082867;28;20398;-35
2023/06/18 00:41:02;;;;;;;16.88;12.20;;;;;;;;;;5081316;28;19908;-35
2023/06/18 00:43:27;;;;;;;16.98;13.00;;;;;;;;;;5087816;28;20035;-37
2023/06/18 00:46:01;;;;;;;18.98;12.85;;;;;;;;;;5085276;28;20020;-35
2023/06/18 00:48:31;;;;;;;17.10;12.38;;;;;;;;;;5068968;28;20036;-35
2023/06/18 00:50:56;;;;;;;16.90;12.18;;;;;;;;;;5086819;28;20016;-35
2023/06/18 00:53:22;;;;;;;18.05;13.05;;;;;;;;;;5078415;28;20031;-36
2023/06/18 00:55:47;;;;;;;18.42;13.18;;;;;;;;;;5066521;28;20032;-36
2023/06/18 00:58:13;;;;;;;19.92;13.13;;;;;;;;;;5086328;28;20027;-35
2023/06/18 01:00:47;;;;;;;17.73;12.40;;;;;;;;;;5088433;28;20157;-36
2023/06/18 01:03:20;;;;;;;16.33;12.40;;;;;;;;;;5100551;27;20020;-36
2023/06/18 01:05:52;;;;;;;16.50;13.50;;;;;;;;;;5083363;28;20028;-35
2023/06/18 01:08:23;;;;;;;18.60;12.98;;;;;;;;;;5081170;28;20078;-35
2023/06/18 01:11:01;;;;;;;19.03;13.13;;;;;;;;;;5088837;28;20127;-36
2023/06/18 01:13:30;;;;;;;23.67;14.35;;;;;;;;;;5095236;27;20278;-35
2023/06/18 01:15:56;;;;;;;18.88;13.80;;;;;;;;;;5085936;28;20499;-35
2023/06/18 01:18:27;;;;;;;22.02;14.10;;;;;;;;;;5081180;28;20028;-35
2023/06/18 01:20:55;;;;;;;17.85;13.32;;;;;;;;;;5093204;27;20023;-35
2023/06/18 01:23:30;;;;;;;18.92;12.82;;;;;;;;;;5085252;28;20024;-35
2023/06/18 01:26:01;;;;;;;19.27;13.48;;;;;;;;;;5086130;28;20028;-35
2023/06/18 01:28:30;;;;;;;20.02;12.18;;;;;;;;;;5082636;28;20118;-35
2023/06/18 01:30:58;;;;;;;18.88;12.75;;;;;;;;;;5085111;28;20119;-35
2023/06/18 01:33:26;;;;;;;18.63;12.90;;;;;;;;;;5081505;28;20039;-35
2023/06/18 01:35:53;;;;;;;15.80;12.68;;;;;;;;;;5086702;28;20466;-37
2023/06/18 01:38:42;;;;;;;19.67;14.15;;;;;;;;;;5083140;28;20038;-35
2023/06/18 01:41:18;;;;;;;17.95;12.32;;;;;;;;;;5089423;28;20012;-35
2023/06/18 01:43:51;;;;;;;13.40;10.35;;;;;;;;;;5085019;28;20016;-35
2023/06/18 01:46:18;;;;;;;16.38;10.02;;;;;;;;;;5083148;28;20016;-35
2023/06/18 01:49:07;;;;;;;15.98;11.10;;;;;;;;;;5076880;28;20036;-36
2023/06/18 01:51:40;;;;;;;16.00;11.13;;;;;;;;;;5070666;28;20426;-35
2023/06/18 01:54:06;;;;;;;15.27;10.25;;;;;;;;;;5066029;28;20085;-35
2023/06/18 01:56:32;;;;;;;13.38;10.68;;;;;;;;;;5087611;28;20076;-38
2023/06/18 01:59:00;;;;;;;12.98;9.55;;;;;;;;;;5081148;28;20439;-35
2023/06/18 02:01:27;;;;;;;11.48;9.27;;;;;;;;;;5078449;28;20107;-36
2023/06/18 02:03:53;;;;;;;12.45;9.45;;;;;;;;;;5085840;28;20099;-35
2023/06/18 02:06:21;;;;;;;13.48;10.32;;;;;;;;;;5083260;28;20099;-35
2023/06/18 02:08:51;;;;;;;13.57;10.48;;;;;;;;;;5061851;28;20758;-37
2023/06/18 02:11:16;;;;;;;12.82;9.88;;;;;;;;;;5086849;28;20121;-35
2023/06/18 02:13:47;;;;;;;12.25;9.65;;;;;;;;;;5081907;28;20481;-35
2023/06/18 02:16:13;;;;;;;13.00;10.07;;;;;;;;;;5081699;28;20044;-36
2023/06/18 02:18:38;;;;;;;12.90;8.52;;;;;;;;;;5084318;28;20149;-35
2023/06/18 02:21:04;;;;;;;11.30;9.43;;;;;;;;;;5065596;28;20056;-36
2023/06/18 02:23:29;;;;;;;10.25;8.82;;;;;;;;;;5081472;28;20041;-37
2023/06/18 02:25:56;;;;;;;10.90;8.45;;;;;;;;;;5063234;28;20036;-36
2023/06/18 02:28:25;;;;;;;11.70;8.43;;;;;;;;;;5086015;28;20474;-35
2023/06/18 02:30:53;;;;;;;9.75;8.48;;;;;;;;;;5084592;28;20027;-35
2023/06/18 02:33:23;;;;;;;11.07;8.75;;;;;;;;;;5081919;28;20051;-35
2023/06/18 02:35:51;;;;;;;18.38;9.52;;;;;;;;;;5079790;28;20112;-35
2023/06/18 02:38:16;;;;;;;10.55;8.55;;;;;;;;;;5066118;28;20069;-35
2023/06/18 02:40:45;;;;;;;9.50;7.90;;;;;;;;;;5084141;28;20449;-35
2023/06/18 02:43:10;;;;;;;8.68;7.13;;;;;;;;;;5083778;28;20390;-35
2023/06/18 02:45:36;;;;;;;9.30;7.68;;;;;;;;;;5067382;28;20490;-36
2023/06/18 02:48:01;;;;;;;9.48;8.30;;;;;;;;;;5069406;28;20039;-35
2023/06/18 02:50:29;;;;;;;9.27;8.05;;;;;;;;;;5085381;28;20023;-37
2023/06/18 02:52:55;;;;;;;10.25;8.15;;;;;;;;;;5084995;28;20394;-35
2023/06/18 02:55:23;;;;;;;10.88;8.50;;;;;;;;;;5071895;28;20482;-35
2023/06/18 02:57:51;;;;;;;10.73;8.32;;;;;;;;;;5086861;28;20024;-36
2023/06/18 03:00:16;;;;;;;13.73;9.25;;;;;;;;;;5086018;28;20016;-37
2023/06/18 03:02:44;;;;;;;12.80;8.77;;;;;;;;;;5085168;28;20020;-35
2023/06/18 03:05:10;;;;;;;13.30;8.00;;;;;;;;;;5087981;28;20466;-35
2023/06/18 03:07:35;;;;;;;12.48;8.68;;;;;;;;;;5069811;28;20051;-35
2023/06/18 03:10:03;;;;;;;11.75;8.25;;;;;;;;;;5080626;28;20070;-36
2023/06/18 03:12:29;;;;;;;12.20;7.82;;;;;;;;;;5088648;27;20036;-36
2023/06/18 03:14:55;;;;;;;10.38;8.30;;;;;;;;;;5087772;28;20402;-36
2023/06/18 03:17:21;;;;;;;12.93;8.10;;;;;;;;;;5078778;28;20115;-36
2023/06/18 03:19:46;;;;;;;13.55;8.65;;;;;;;;;;5087942;28;20028;-35
2023/06/18 03:22:14;;;;;;;11.68;7.63;;;;;;;;;;5085817;28;20474;-36
2023/06/18 03:24:40;;;;;;;10.00;7.68;;;;;;;;;;5083091;28;20028;-35
2023/06/18 03:27:06;;;;;;;9.55;7.78;;;;;;;;;;5070170;28;20027;-35
2023/06/18 03:29:34;;;;;;;8.38;6.90;;;;;;;;;;5078822;28;20028;-35
2023/06/18 03:32:00;;;;;;;8.48;7.43;;;;;;;;;;5088003;28;20039;-36
2023/06/18 03:34:26;;;;;;;9.07;7.18;;;;;;;;;;5085040;28;20591;-35
2023/06/18 03:36:54;;;;;;;8.63;7.32;;;;;;;;;;5079547;28;20028;-36
2023/06/18 03:39:22;;;;;;;9.00;6.85;;;;;;;;;;5085956;28;20020;-36
2023/06/18 03:41:53;;;;;;;22.02;14.55;;;;;;;;;;5082892;28;20020;-37
2023/06/18 03:44:21;;;;;;;10.65;8.95;;;;;;;;;;5081900;28;20023;-35
2023/06/18 03:46:49;;;;;;;10.35;8.27;;;;;;;;;;5064097;28;20386;-37
2023/06/18 03:49:15;;;;;;;11.32;8.38;;;;;;;;;;5066158;28;20060;-35
2023/06/18 03:51:40;;;;;;;11.95;8.77;;;;;;;;;;5085307;28;20113;-35
2023/06/18 03:54:06;;;;;;;10.18;8.60;;;;;;;;;;5060948;28;20034;-35
2023/06/18 03:56:34;;;;;;;11.38;8.75;;;;;;;;;;5067890;28;20117;-35
2023/06/18 03:59:02;;;;;;;9.30;7.90;;;;;;;;;;5084822;28;20045;-35
2023/06/18 04:01:28;;;;;;;12.00;8.57;;;;;;;;;;5083439;28;20020;-35
2023/06/18 04:03:55;;;;;;;9.23;7.38;;;;;;;;;;5085868;28;20012;-35
2023/06/18 04:06:21;;;;;;;26.75;16.65;;;;;;;;;;5067651;28;20494;-35
2023/06/18 04:08:46;;;;;;;12.43;8.80;;;;;;;;;;5069771;28;20043;-37
2023/06/18 04:11:12;;;;;;;11.38;8.90;;;;;;;;;;5067730;28;20397;-35
2023/06/18 04:13:39;;;;;;;9.43;8.13;;;;;;;;;;5085607;28;20064;-35
2023/06/18 04:16:09;;;;;;;12.35;8.50;;;;;;;;;;5073259;28;20020;-35
2023/06/18 04:18:34;;;;;;;14.10;8.90;;;;;;;;;;5087081;28;20142;-36
2023/06/18 04:21:00;;;;;;;12.43;9.23;;;;;;;;;;5068093;28;20103;-36
2023/06/18 04:23:27;;;;;;;8.27;6.00;;;;;;;;;;5070156;28;20471;-36
2023/06/18 04:25:55;;;;;;;12.73;9.65;;;;;;;;;;5090487;28;20020;-35
2023/06/18 04:28:26;;;;;;;14.40;10.70;;;;;;;;;;5085403;28;20020;-35
2023/06/18 04:30:54;;;;;;;15.23;10.27;;;;;;;;;;5092936;28;20028;-35
2023/06/18 04:33:20;;;;;;;11.50;9.82;;;;;;;;;;5086070;28;20020;-36
2023/06/18 04:35:48;;;;;;;12.57;9.70;;;;;;;;;;5067830;28;20027;-35
2023/06/18 04:38:16;;;;;;;11.35;9.93;;;;;;;;;;5085106;28;20500;-35
2023/06/18 04:40:42;;;;;;;13.05;10.45;;;;;;;;;;5084662;28;20016;-35
2023/06/18 04:43:07;;;;;;;11.70;9.77;;;;;;;;;;5071015;28;20035;-36
2023/06/18 04:45:37;;;;;;;14.15;9.75;;;;;;;;;;5064190;28;20036;-37
2023/06/18 04:48:03;;;;;;;10.95;8.77;;;;;;;;;;5085481;28;20947;-36
2023/06/18 04:50:29;;;;;;;16.08;11.35;;;;;;;;;;5073508;28;20482;-36
2023/06/18 04:52:55;;;;;;;16.33;10.10;;;;;;;;;;5071682;28;20110;-36
2023/06/18 04:55:23;;;;;;;13.52;10.30;;;;;;;;;;5069021;28;20478;-36
2023/06/18 04:57:48;;;;;;;13.00;10.13;;;;;;;;;;5068815;28;20039;-36
2023/06/18 05:00:18;;;;;;;13.13;10.02;;;;;;;;;;5081429;28;20031;-35
2023/06/18 05:02:46;;;;;;;12.40;10.15;;;;;;;;;;5087374;28;20508;-35
2023/06/18 05:05:18;;;;;;;13.63;10.10;;;;;;;;;;5071021;28;20136;-37
2023/06/18 05:07:43;;;;;;;12.82;9.93;;;;;;;;;;5088351;28;20023;-35
2023/06/18 05:10:09;;;;;;;13.20;9.63;;;;;;;;;;5082958;28;20032;-35
2023/06/18 05:12:38;;;;;;;13.35;10.57;;;;;;;;;;5085724;28;20170;-35
2023/06/18 05:15:04;;;;;;;13.35;9.65;;;;;;;;;;5084269;28;20023;-36
2023/06/18 05:17:31;;;;;;;12.77;10.10;;;;;;;;;;5072142;28;20024;-36
2023/06/18 05:20:02;;;;;;;16.95;10.57;;;;;;;;;;5085453;28;20168;-36
2023/06/18 05:22:31;;;;;;;12.88;10.60;;;;;;;;;;5089016;28;20509;-38
2023/06/18 05:24:59;;;;;;;15.07;10.93;;;;;;;;;;5085833;28;20027;-35
2023/06/18 05:27:25;;;;;;;14.35;10.13;;;;;;;;;;5087173;28;20028;-37
2023/06/18 05:29:50;;;;;;;14.70;10.52;;;;;;;;;;5069977;28;20064;-35
2023/06/18 05:32:16;;;;;;;16.27;11.40;;;;;;;;;;5072531;28;20052;-36
2023/06/18 05:34:47;;;;;;;9.48;6.10;;;;;;;;;;5086246;28;20412;-35
2023/06/18 05:37:17;;;;;;;16.02;10.93;;;;;;;;;;5080003;28;20453;-37
2023/06/18 05:39:48;;;;;;;19.10;13.15;;;;;;;;;;5083342;28;20024;-36
2023/06/18 05:42:14;;;;;;;14.60;10.52;;;;;;;;;;5085219;28;20016;-35
2023/06/18 05:44:39;;;;;;;14.38;11.57;;;;;;;;;;5068651;28;20089;-36
2023/06/18 05:47:07;;;;;;;12.23;9.70;;;;;;;;;;5064929;28;20133;-35
2023/06/18 05:49:35;;;;;;;15.63;11.57;;;;;;;;;;5088218;28;20040;-35
2023/06/18 05:52:00;;;;;;;15.57;12.57;;;;;;;;;;5082136;28;20119;-36
2023/06/18 05:54:26;;;;;;;18.02;13.88;;;;;;;;;;5072028;28;20119;-35
2023/06/18 05:56:51;;;;;;;17.77;12.65;;;;;;;;;;5081865;28;20383;-35
2023/06/18 05:59:17;;;;;;;18.02;12.80;;;;;;;;;;5076826;28;20355;-36
2023/06/18 06:01:45;;;;;;;17.40;13.75;;;;;;;;;;5083022;28;20055;-36
2023/06/18 06:04:15;;;;;;;16.88;13.32;;;;;;;;;;5078038;28;20482;-35
2023/06/18 06:06:43;;;;;;;17.73;12.65;;;;;;;;;;5084429;28;20032;-36
2023/06/18 06:09:09;;;;;;;16.48;10.80;;;;;;;;;;5080264;28;20028;-35
2023/06/18 06:11:36;;;;;;;18.13;12.50;;;;;;;;;;5091090;28;20069;-37
2023/06/18 06:14:02;;;;;;;14.55;12.57;;;;;;;;;;5069717;28;20027;-35
2023/06/18 06:16:27;;;;;;;14.48;12.88;;;;;;;;;;5084251;28;20020;-36
2023/06/18 06:18:56;;;;;;;15.68;12.65;;;;;;;;;;5083049;28;20023;-35
2023/06/18 06:21:23;;;;;;;17.00;11.55;;;;;;;;;;5066326;28;20529;-35
2023/06/18 06:23:49;;;;;;;14.65;12.07;;;;;;;;;;5083487;28;20020;-35
2023/06/18 06:26:14;;;;;;;16.15;11.35;;;;;;;;;;5068200;28;20077;-36
2023/06/18 06:28:40;;;;;;;16.20;12.52;;;;;;;;;;5085587;28;20405;-35
2023/06/18 06:31:13;;;;;;;14.80;11.90;;;;;;;;;;5081023;28;20528;-35
2023/06/18 06:33:43;;;;;;;15.10;11.85;;;;;;;;;;5084802;28;20020;-35
2023/06/18 06:36:09;;;;;;;19.85;13.20;;;;;;;;;;5077263;28;20494;-36
2023/06/18 06:38:37;;;;;;;14.23;11.10;;;;;;;;;;5063406;28;20075;-35
2023/06/18 06:41:02;;;;;;;17.67;12.13;;;;;;;;;;5086566;28;20069;-36
2023/06/18 06:43:30;;;;;;;16.67;11.48;;;;;;;;;;5084594;28;20017;-36
2023/06/18 06:45:58;;;;;;;9.20;7.95;;;;;;;;;;5067024;28;20080;-36
2023/06/18 06:48:26;;;;;;;14.60;12.00;;;;;;;;;;5087957;28;20538;-36
2023/06/18 06:50:52;;;;;;;12.32;9.88;;;;;;;;;;5084405;28;20412;-38
2023/06/18 06:53:20;;;;;;;15.18;10.73;;;;;;;;;;5082577;28;20027;-35
2023/06/18 06:55:45;;;;;;;15.88;11.07;;;;;;;;;;5064664;28;20402;-36
2023/06/18 06:58:11;;;;;;;13.02;10.65;;;;;;;;;;5082228;28;20534;-36
2023/06/18 07:00:39;;;;;;;16.02;10.63;;;;;;;;;;5063663;28;20709;-36
2023/06/18 07:03:10;;;;;;;12.75;10.55;;;;;;;;;;5099808;28;20081;-36
2023/06/18 07:05:38;;;;;;;15.43;12.02;;;;;;;;;;5078201;28;20515;-37
2023/06/18 07:08:05;;;;;;;17.52;12.10;;;;;;;;;;5077716;28;20043;-36
2023/06/18 07:10:31;;;;;;;15.82;12.48;;;;;;;;;;5080987;28;20028;-36
2023/06/18 07:12:59;;;;;;;14.65;11.75;;;;;;;;;;5070480;28;20046;-36
2023/06/18 07:15:24;;;;;;;15.57;12.88;;;;;;;;;;5079902;28;20024;-37
2023/06/18 07:17:50;;;;;;;17.02;11.55;;;;;;;;;;5085350;28;20024;-36
2023/06/18 07:20:24;;;;;;;17.63;13.27;;;;;;;;;;5084944;28;20420;-35
2023/06/18 07:22:49;;;;;;;18.15;11.88;;;;;;;;;;5088702;28;20008;-36
2023/06/18 07:25:15;;;;;;;18.02;13.30;;;;;;;;;;5072081;28;20413;-35
2023/06/18 07:27:42;;;;;;;16.35;12.88;;;;;;;;;;5084573;28;20028;-36
2023/06/18 07:30:08;;;;;;;18.05;14.43;;;;;;;;;;5086436;28;20459;-36
2023/06/18 07:32:37;;;;;;;15.82;12.73;;;;;;;;;;5083741;28;20526;-36
2023/06/18 07:35:05;;;;;;;16.92;11.98;;;;;;;;;;5063824;28;20414;-36
2023/06/18 07:37:33;;;;;;;16.65;13.32;;;;;;;;;;5080102;28;20035;-36
2023/06/18 07:39:59;;;;;;;17.63;13.07;;;;;;;;;;5064759;28;20131;-36
2023/06/18 07:42:24;;;;;;;15.80;13.10;;;;;;;;;;5068862;28;20118;-38
2023/06/18 07:44:52;;;;;;;14.65;11.02;;;;;;;;;;5067754;28;20127;-37
2023/06/18 07:47:17;;;;;;;13.45;10.63;;;;;;;;;;5069956;28;20111;-36
2023/06/18 07:49:43;;;;;;;14.02;10.05;;;;;;;;;;5082696;28;20115;-36
2023/06/18 07:52:12;;;;;;;11.63;10.15;;;;;;;;;;5078651;28;20024;-35
2023/06/18 07:54:42;;;;;;;14.93;11.02;;;;;;;;;;5066579;28;20395;-36
2023/06/18 07:57:10;;;;;;;12.75;9.48;;;;;;;;;;5081994;28;20085;-36
2023/06/18 07:59:36;;;;;;;10.25;8.88;;;;;;;;;;5075167;28;20459;-35
2023/06/18 08:02:03;;;;;;;11.57;9.60;;;;;;;;;;5084396;28;20475;-36
2023/06/18 08:04:30;;;;;;;11.25;9.43;;;;;;;;;;5076897;28;20017;-37
2023/06/18 08:06:56;;;;;;;11.57;9.35;;;;;;;;;;5075955;28;20015;-35
2023/06/18 08:09:21;;;;;;;14.75;10.50;;;;;;;;;;5062377;28;20043;-36
2023/06/18 08:11:48;;;;;;;16.30;9.20;;;;;;;;;;5082563;28;20024;-35
2023/06/18 08:14:13;;;;;;;12.70;8.10;;;;;;;;;;5074557;28;20913;-35
2023/06/18 08:16:41;;;;;;;11.00;9.07;;;;;;;;;;5081326;28;20027;-36
2023/06/18 08:19:09;;;;;;;12.90;8.93;;;;;;;;;;5079395;28;20402;-36
2023/06/18 08:21:37;;;;;;;14.15;9.65;;;;;;;;;;5066896;28;20032;-36
2023/06/18 08:24:02;;;;;;;11.85;8.93;;;;;;;;;;5072539;28;20024;-36
2023/06/18 08:26:28;;;;;;;10.45;8.38;;;;;;;;;;5079001;28;20020;-37
2023/06/18 08:28:53;;;;;;;11.05;8.55;;;;;;;;;;5065379;28;20035;-35
2023/06/18 08:31:20;;;;;;;10.15;8.55;;;;;;;;;;5076520;28;20026;-36
2023/06/18 08:33:45;;;;;;;9.63;8.18;;;;;;;;;;5067115;28;20036;-36
2023/06/18 08:36:13;;;;;;;11.93;8.63;;;;;;;;;;5062182;28;20035;-36
2023/06/18 08:38:41;;;;;;;11.77;8.85;;;;;;;;;;5071800;28;20028;-35
2023/06/18 08:41:07;;;;;;;13.43;8.82;;;;;;;;;;5059901;28;20028;-36
2023/06/18 08:43:37;;;;;;;11.80;9.15;;;;;;;;;;5078397;28;20038;-35
2023/06/18 08:46:08;;;;;;;11.13;8.77;;;;;;;;;;5081275;28;20070;-35
2023/06/18 08:48:36;;;;;;;10.23;8.60;;;;;;;;;;5083987;28;20102;-35
2023/06/18 08:51:05;;;;;;;10.35;7.10;;;;;;;;;;5071888;28;20070;-35
2023/06/18 08:53:43;;;;;;;9.60;7.63;;;;;;;;;;5066141;28;20482;-35
2023/06/18 08:56:09;;;;;;;13.57;9.13;;;;;;;;;;5082573;28;20024;-35
2023/06/18 08:58:41;;;;;;;9.13;7.30;;;;;;;;;;5082688;28;20074;-35
2023/06/18 09:01:07;;;;;;;10.63;8.02;;;;;;;;;;5080096;28;20123;-35
2023/06/18 09:03:32;;;;;;;11.30;7.93;;;;;;;;;;5087207;28;20122;-35
2023/06/18 09:06:00;;;;;;;11.50;6.78;;;;;;;;;;5085010;28;20020;-35
2023/06/18 09:08:29;;;;;;;9.48;7.18;;;;;;;;;;5061715;28;20020;-37
2023/06/18 09:10:55;;;;;;;11.18;7.28;;;;;;;;;;5093798;27;20395;-36
2023/06/18 09:13:23;;;;;;;10.25;7.78;;;;;;;;;;5074807;28;20023;-36
2023/06/18 09:15:51;;;;;;;6.97;4.57;;;;;;;;;;5056819;28;20077;-36
2023/06/18 09:18:20;;;;;;;6.15;4.53;;;;;;;;;;5070497;28;20176;-35
2023/06/18 09:20:45;;;;;;;6.80;4.43;;;;;;;;;;5079954;28;20031;-36
2023/06/18 09:23:11;;;;;;;7.47;5.03;;;;;;;;;;5077424;28;20024;-36
2023/06/18 09:25:39;;;;;;;6.35;4.35;;;;;;;;;;5084381;28;20027;-36
2023/06/18 09:28:07;;;;;;;3.72;2.25;;;;;;;;;;5069346;28;20036;-36
2023/06/18 09:30:35;;;;;;;7.53;4.55;;;;;;;;;;5078494;28;20154;-36
2023/06/18 09:33:03;;;;;;;5.60;4.50;;;;;;;;;;5083606;28;20454;-36
2023/06/18 09:35:32;;;;;;;7.32;3.83;;;;;;;;;;5079175;28;20503;-35
2023/06/18 09:38:10;;;;;;;9.35;5.28;;;;;;;;;;5081591;28;20059;-35
2023/06/18 09:40:35;;;;;;;6.55;4.55;;;;;;;;;;5078554;28;20043;-36
2023/06/18 09:43:03;;;;;;;5.85;4.35;;;;;;;;;;5060178;28;20016;-38
2023/06/18 09:45:28;;;;;;;8.57;4.68;;;;;;;;;;5078098;28;20028;-36
2023/06/18 09:47:56;;;;;;;5.80;5.03;;;;;;;;;;5076956;28;20051;-35
2023/06/18 09:50:30;;;;;;;8.38;5.05;;;;;;;;;;5081978;28;20193;-37
2023/06/18 09:52:58;;;;;;;6.72;4.63;;;;;;;;;;5074413;28;20541;-36
2023/06/18 09:55:30;;;;;;;6.57;4.68;;;;;;;;;;5080339;28;20028;-36
2023/06/18 09:57:55;;;;;;;;;;;;;;;;;;5088995;27;20024;-36
2023/06/18 10:00:21;;;;;;;6.57;4.68;;;;;;;;;;5079637;28;20353;-35
2023/06/18 10:02:52;;;;;;;9.73;6.10;;;;;;;;;;5063631;28;20562;-38
2023/06/18 10:05:17;;;;;;;8.05;5.38;;;;;;;;;;5059295;28;20028;-35
2023/06/18 10:07:48;;;;;;;7.18;4.15;;;;;;;;;;5079286;28;20024;-36
2023/06/18 10:10:14;;;;;;;8.90;4.30;;;;;;;;;;5078200;28;20024;-36
2023/06/18 10:12:44;;;;;;;7.93;4.88;;;;;;;;;;5084628;28;20040;-35
2023/06/18 10:15:19;;;;;;;8.85;4.82;;;;;;;;;;5073692;28;20852;-35
2023/06/18 10:17:50;;;;;;;7.55;5.40;;;;;;;;;;5058588;28;20039;-36
2023/06/18 10:20:18;;;;;;;7.57;5.57;;;;;;;;;;5074019;28;20024;-36
2023/06/18 10:22:54;;;;;;;6.25;4.60;;;;;;;;;;5079541;28;20024;-35
2023/06/18 10:25:20;;;;;;;8.05;5.07;;;;;;;;;;5079216;28;20028;-35
2023/06/18 10:27:46;;;;;;;8.32;6.05;;;;;;;;;;5062495;28;20840;-35
2023/06/18 10:30:12;;;;;;;6.50;5.10;;;;;;;;;;5073858;28;20024;-37
2023/06/18 10:32:38;;;;;;;8.73;4.60;;;;;;;;;;5070944;28;20406;-35
2023/06/18 10:35:07;;;;;;;8.75;5.15;;;;;;;;;;5076700;28;20038;-35
2023/06/18 10:37:35;;;;;;;6.00;4.70;;;;;;;;;;5076254;28;20119;-35
2023/06/18 10:40:04;;;;;;;8.05;5.80;;;;;;;;;;5082876;28;20393;-35
2023/06/18 10:42:35;;;;;;;6.55;4.88;;;;;;;;;;5077757;28;20020;-37
2023/06/18 10:45:14;;;;;;;6.40;4.68;;;;;;;;;;5079754;28;20051;-37
2023/06/18 10:47:43;;;;;;;5.75;4.45;;;;;;;;;;5078680;28;20444;-37
2023/06/18 10:50:11;;;;;;;4.75;3.92;;;;;;;;;;5055493;28;20088;-36
2023/06/18 10:52:38;;;;;;;6.10;4.47;;;;;;;;;;5072272;28;20028;-35
2023/06/18 10:55:11;;;;;;;8.30;4.63;;;;;;;;;;5073364;28;20077;-36
2023/06/18 10:57:47;;;;;;;7.55;5.13;;;;;;;;;;5061064;28;20059;-36
2023/06/18 11:00:29;;;;;;;17.48;11.48;;;;;;;;;;5077838;28;20529;-36
2023/06/18 11:03:01;;;;;;;8.65;5.20;;;;;;;;;;5079666;28;20031;-36
2023/06/18 11:05:33;;;;;;;7.05;4.97;;;;;;;;;;5075670;28;20111;-38
2023/06/18 11:07:58;;;;;;;;;;;;;;;;;;5076916;28;20020;-36
2023/06/18 11:10:34;;;;;;;6.03;4.45;;;;;;;;;;5080731;28;19915;-36
2023/06/18 11:13:04;;;;;;;6.30;4.15;;;;;;;;;;5096595;28;20035;-35
2023/06/18 11:15:35;;;;;;;6.22;4.60;;;;;;;;;;5056889;28;20031;-35
2023/06/18 11:18:04;;;;;;;8.18;4.20;;;;;;;;;;5082272;28;20031;-35
2023/06/18 11:20:33;;;;;;;5.90;4.60;;;;;;;;;;5079337;28;20032;-35
2023/06/18 11:23:02;;;;;;;7.43;4.45;;;;;;;;;;5078604;28;20038;-35
2023/06/18 11:25:31;;;;;;;9.98;4.75;;;;;;;;;;5075737;28;22071;-36
2023/06/18 11:28:01;;;;;;;5.10;3.50;;;;;;;;;;5077484;28;20016;-36
2023/06/18 11:30:27;;;;;;;5.32;4.00;;;;;;;;;;5075245;28;20405;-36
2023/06/18 11:32:52;;;;;;;5.60;3.65;;;;;;;;;;5071144;28;20024;-35
2023/06/18 11:35:20;;;;;;;5.65;4.18;;;;;;;;;;5078180;28;20046;-35
2023/06/18 11:37:45;;;;;;;5.88;3.90;;;;;;;;;;5061344;28;20751;-36
2023/06/18 11:40:11;;;;;;;6.82;4.20;;;;;;;;;;5080521;28;20032;-36
2023/06/18 11:42:48;;;;;;;6.72;4.05;;;;;;;;;;5078192;28;20637;-35
2023/06/18 11:45:19;;;;;;;5.55;3.88;;;;;;;;;;5077612;28;20020;-37
2023/06/18 11:47:50;;;;;;;6.88;4.00;;;;;;;;;;5088530;28;20016;-36
2023/06/18 11:50:22;;;;;;;6.97;3.90;;;;;;;;;;5092024;27;20482;-36
2023/06/18 11:52:49;;;;;;;7.82;3.53;;;;;;;;;;5078772;28;20163;-35
2023/06/18 11:55:15;;;;;;;5.60;3.53;;;;;;;;;;5075284;28;20392;-36
2023/06/18 11:57:44;;;;;;;5.93;3.53;;;;;;;;;;5080580;28;20030;-37
2023/06/18 12:00:14;;;;;;;6.47;3.78;;;;;;;;;;5080689;28;20020;-36
2023/06/18 12:02:43;;;;;;;6.13;3.45;;;;;;;;;;5083045;28;20467;-35
2023/06/18 12:05:14;;;;;;;6.82;3.58;;;;;;;;;;5079464;28;20024;-35
2023/06/18 12:07:44;;;;;;;4.30;3.15;;;;;;;;;;5082364;28;20036;-36
2023/06/18 12:10:10;;;;;;;7.05;3.63;;;;;;;;;;5075201;28;20032;-36
2023/06/18 12:12:39;;;;;;;5.57;3.47;;;;;;;;;;5079237;28;20585;-37
2023/06/18 12:15:04;;;;;;;7.40;3.75;;;;;;;;;;5079738;28;20564;-36
2023/06/18 12:17:32;;;;;;;8.80;4.30;;;;;;;;;;5072107;28;20020;-37
2023/06/18 12:20:07;;;;;;;7.25;3.72;;;;;;;;;;5073311;28;20290;-36
2023/06/18 12:22:35;;;;;;;13.05;5.72;;;;;;;;;;5066027;28;20020;-36
2023/06/18 12:25:00;;;;;;;6.32;3.90;;;;;;;;;;5079813;28;20070;-36
2023/06/18 12:27:26;;;;;;;7.40;4.80;;;;;;;;;;5077647;28;20459;-35
2023/06/18 12:29:52;;;;;;;4.80;3.72;;;;;;;;;;5079239;28;20478;-36
2023/06/18 12:32:19;;;;;;;7.07;3.95;;;;;;;;;;5071140;28;20039;-36
2023/06/18 12:34:45;;;;;;;6.53;3.97;;;;;;;;;;5079800;28;20484;-35
2023/06/18 12:37:15;;;;;;;7.57;4.30;;;;;;;;;;5081364;28;20031;-36
2023/06/18 12:40:00;;;;;;;6.85;3.90;;;;;;;;;;5080289;28;20495;-36
2023/06/18 12:42:28;;;;;;;7.28;4.32;;;;;;;;;;5078377;28;20541;-36
2023/06/18 12:44:54;;;;;;;5.38;3.60;;;;;;;;;;5081181;28;20031;-36
2023/06/18 12:47:20;;;;;;;6.88;4.20;;;;;;;;;;5086096;28;20494;-36
2023/06/18 12:49:46;;;;;;;6.43;4.05;;;;;;;;;;5068075;28;20031;-37
2023/06/18 12:52:21;;;;;;;8.93;4.68;;;;;;;;;;5058653;28;20033;-36
2023/06/18 12:54:47;;;;;;;7.05;4.50;;;;;;;;;;5076811;28;20493;-36
2023/06/18 12:57:14;;;;;;;7.47;4.35;;;;;;;;;;5081189;28;20040;-36
2023/06/18 12:59:47;;;;;;;6.28;4.18;;;;;;;;;;5075225;28;20700;-36
2023/06/18 13:02:20;;;;;;;7.30;3.88;;;;;;;;;;5081955;28;20024;-36
2023/06/18 13:04:50;;;;;;;6.63;4.00;;;;;;;;;;5074703;28;20500;-36
2023/06/18 13:07:18;;;;;;;8.25;4.05;;;;;;;;;;5080033;28;20035;-37
2023/06/18 13:09:45;;;;;;;6.28;4.07;;;;;;;;;;5076845;28;20114;-37
2023/06/18 13:12:15;;;;;;;6.80;4.18;;;;;;;;;;5082795;28;20319;-37
2023/06/18 13:14:42;;;;;;;7.70;3.97;;;;;;;;;;5081127;28;20074;-36
2023/06/18 13:17:10;;;;;;;6.65;3.67;;;;;;;;;;5072725;28;20032;-36
2023/06/18 13:19:38;;;;;;;6.72;4.07;;;;;;;;;;5076803;28;20084;-36
2023/06/18 13:22:03;;;;;;;7.22;3.65;;;;;;;;;;5084133;28;20016;-35
2023/06/18 13:24:29;;;;;;;6.05;4.10;;;;;;;;;;5066862;28;20058;-36
2023/06/18 13:26:57;;;;;;;6.95;4.72;;;;;;;;;;5076698;28;20133;-36
2023/06/18 13:29:24;;;;;;;7.28;4.43;;;;;;;;;;5095219;27;20052;-36
2023/06/18 13:31:49;;;;;;;7.80;4.32;;;;;;;;;;5079682;28;20552;-37
2023/06/18 13:34:17;;;;;;;7.45;4.25;;;;;;;;;;5059889;28;20028;-36
2023/06/18 13:36:48;;;;;;;8.15;4.90;;;;;;;;;;5081908;28;20186;-35
2023/06/18 13:39:15;;;;;;;6.53;3.85;;;;;;;;;;5078223;28;20078;-36
2023/06/18 13:41:43;;;;;;;6.93;4.13;;;;;;;;;;5081116;28;20034;-36
2023/06/18 13:44:11;;;;;;;12.02;7.55;;;;;;;;;;5082576;28;20099;-35
2023/06/18 13:46:36;;;;;;;8.05;4.35;;;;;;;;;;5067433;28;20478;-37
2023/06/18 13:49:04;;;;;;;7.38;4.15;;;;;;;;;;5079461;28;20073;-36
2023/06/18 13:51:32;;;;;;;6.72;2.33;;;;;;;;;;5083764;28;20068;-36
2023/06/18 13:53:58;;;;;;;8.25;4.18;;;;;;;;;;5059683;28;20028;-36
2023/06/18 13:56:27;;;;;;;5.22;3.72;;;;;;;;;;5077077;28;20019;-36
2023/06/18 13:58:52;;;;;;;7.13;3.90;;;;;;;;;;5076060;28;20025;-37
2023/06/18 14:01:18;;;;;;;6.65;4.15;;;;;;;;;;5080391;28;20473;-35
2023/06/18 14:03:43;;;;;;;7.93;3.55;;;;;;;;;;5080479;28;20514;-37
2023/06/18 14:06:09;;;;;;;6.05;3.60;;;;;;;;;;5064355;28;20032;-36
2023/06/18 14:08:39;;;;;;;11.75;6.72;;;;;;;;;;5061766;28;20031;-36
2023/06/18 14:11:05;;;;;;;9.23;5.35;;;;;;;;;;5079913;28;20016;-36
2023/06/18 14:13:30;;;;;;;15.93;8.05;;;;;;;;;;5057529;28;20826;-36
2023/06/18 14:15:56;;;;;;;13.07;6.90;;;;;;;;;;5068818;28;20020;-36
2023/06/18 14:18:26;;;;;;;11.15;6.72;;;;;;;;;;5070552;28;20027;-36
2023/06/18 14:20:54;;;;;;;6.93;4.72;;;;;;;;;;5080551;28;20020;-38
2023/06/18 14:23:22;;;;;;;6.57;4.20;;;;;;;;;;5080812;28;20039;-36
2023/06/18 14:25:52;;;;;;;6.05;3.90;;;;;;;;;;5065532;28;20038;-37
2023/06/18 14:28:18;;;;;;;7.10;3.90;;;;;;;;;;5077981;28;20030;-37
2023/06/18 14:30:43;;;;;;;8.15;5.78;;;;;;;;;;5061321;28;20042;-36
2023/06/18 14:33:08;;;;;;;14.32;6.22;;;;;;;;;;5082875;28;20024;-36
2023/06/18 14:35:36;;;;;;;7.07;4.43;;;;;;;;;;5077849;28;20769;-36